sensor_id;sensor_type;location;lat;lon;timestamp;temperature;humidity
24452;DHT22;13350;50.984;5.822;2023-08-17T00:02:18;19.40;99.90
24452;DHT22;13350;50.984;5.822;2023-08-17T00:04:45;19.40;99.90
24452;DHT22;13350;50.984;5.822;2023-08-17T00:07:12;19.40;99.90
24452;DHT22;13350;50.984;5.822;2023-08-17T00:09:39;19.40;99.90
24452;DHT22;13350;50.984;5.822;2023-08-17T00:12:06;19.40;99.90
24452;DHT22;13350;50.984;5.822;2023-08-17T00:14:33;19.30;99.90
24452;DHT22;13350;50.984;5.822;2023-08-17T00:17:00;19.30;99.90
24452;DHT22;13350;50.984;5.822;2023-08-17T00:19:30;19.30;99.90
24452;DHT22;13350;50.984;5.822;2023-08-17T00:21:57;19.30;99.90
24452;DHT22;13350;50.984;5.822;2023-08-17T00:24:24;19.30;99.90
24452;DHT22;13350;50.984;5.822;2023-08-17T00:26:51;19.30;99.90
24452;DHT22;13350;50.984;5.822;2023-08-17T00:29:18;19.30;99.90
24452;DHT22;13350;50.984;5.822;2023-08-17T00:31:45;19.30;99.90
24452;DHT22;13350;50.984;5.822;2023-08-17T00:34:12;19.30;99.90
24452;DHT22;13350;50.984;5.822;2023-08-17T00:36:40;19.30;99.90
24452;DHT22;13350;50.984;5.822;2023-08-17T00:39:07;19.30;99.90
24452;DHT22;13350;50.984;5.822;2023-08-17T00:41:34;19.30;99.90
24452;DHT22;13350;50.984;5.822;2023-08-17T00:44:01;19.20;99.90
24452;DHT22;13350;50.984;5.822;2023-08-17T00:46:29;19.20;99.90
24452;DHT22;13350;50.984;5.822;2023-08-17T00:48:56;19.20;99.90
24452;DHT22;13350;50.984;5.822;2023-08-17T00:51:23;19.20;99.90
24452;DHT22;13350;50.984;5.822;2023-08-17T00:53:52;19.20;99.90
24452;DHT22;13350;50.984;5.822;2023-08-17T00:56:19;19.20;99.90
24452;DHT22;13350;50.984;5.822;2023-08-17T00:58:47;19.20;99.90
24452;DHT22;13350;50.984;5.822;2023-08-17T01:01:15;19.10;99.90
24452;DHT22;13350;50.984;5.822;2023-08-17T01:03:42;19.00;99.90
24452;DHT22;13350;50.984;5.822;2023-08-17T01:06:09;19.00;99.90
24452;DHT22;13350;50.984;5.822;2023-08-17T01:08:37;19.00;99.90
24452;DHT22;13350;50.984;5.822;2023-08-17T01:11:08;18.90;99.90
24452;DHT22;13350;50.984;5.822;2023-08-17T01:13:38;18.90;99.90
24452;DHT22;13350;50.984;5.822;2023-08-17T01:16:12;18.90;99.90
24452;DHT22;13350;50.984;5.822;2023-08-17T01:18:41;18.90;99.90
24452;DHT22;13350;50.984;5.822;2023-08-17T01:21:10;18.80;99.90
24452;DHT22;13350;50.984;5.822;2023-08-17T01:23:40;18.80;99.90
24452;DHT22;13350;50.984;5.822;2023-08-17T01:26:07;18.80;99.90
24452;DHT22;13350;50.984;5.822;2023-08-17T01:28:34;18.80;99.90
24452;DHT22;13350;50.984;5.822;2023-08-17T01:31:02;18.80;99.90
24452;DHT22;13350;50.984;5.822;2023-08-17T01:33:31;18.70;99.90
24452;DHT22;13350;50.984;5.822;2023-08-17T01:36:03;18.70;99.90
24452;DHT22;13350;50.984;5.822;2023-08-17T01:38:31;18.70;99.90
24452;DHT22;13350;50.984;5.822;2023-08-17T01:41:01;18.70;99.90
24452;DHT22;13350;50.984;5.822;2023-08-17T01:43:28;18.70;99.90
24452;DHT22;13350;50.984;5.822;2023-08-17T01:45:55;18.60;99.90
24452;DHT22;13350;50.984;5.822;2023-08-17T01:48:22;18.60;99.90
24452;DHT22;13350;50.984;5.822;2023-08-17T01:50:49;18.60;99.90
24452;DHT22;13350;50.984;5.822;2023-08-17T01:53:16;18.60;99.90
24452;DHT22;13350;50.984;5.822;2023-08-17T01:55:43;18.60;99.90
24452;DHT22;13350;50.984;5.822;2023-08-17T01:58:11;18.60;99.90
24452;DHT22;13350;50.984;5.822;2023-08-17T02:00:38;18.50;99.90
24452;DHT22;13350;50.984;5.822;2023-08-17T02:03:05;18.50;99.90
24452;DHT22;13350;50.984;5.822;2023-08-17T02:05:32;18.50;99.90
24452;DHT22;13350;50.984;5.822;2023-08-17T02:07:59;18.40;99.90
24452;DHT22;13350;50.984;5.822;2023-08-17T02:10:26;18.40;99.90
24452;DHT22;13350;50.984;5.822;2023-08-17T02:12:53;18.40;99.90
24452;DHT22;13350;50.984;5.822;2023-08-17T02:15:21;18.30;99.90
24452;DHT22;13350;50.984;5.822;2023-08-17T02:17:48;18.40;99.90
24452;DHT22;13350;50.984;5.822;2023-08-17T02:20:15;18.30;99.90
24452;DHT22;13350;50.984;5.822;2023-08-17T02:22:42;18.30;99.90
24452;DHT22;13350;50.984;5.822;2023-08-17T02:25:09;18.30;99.90
24452;DHT22;13350;50.984;5.822;2023-08-17T02:27:36;18.30;99.90
24452;DHT22;13350;50.984;5.822;2023-08-17T02:30:03;18.30;99.90
24452;DHT22;13350;50.984;5.822;2023-08-17T02:32:32;18.30;99.90
24452;DHT22;13350;50.984;5.822;2023-08-17T02:34:59;18.20;99.90
24452;DHT22;13350;50.984;5.822;2023-08-17T02:37:26;18.20;99.90
24452;DHT22;13350;50.984;5.822;2023-08-17T02:39:53;18.20;99.90
24452;DHT22;13350;50.984;5.822;2023-08-17T02:42:20;18.20;99.90
24452;DHT22;13350;50.984;5.822;2023-08-17T02:44:47;18.20;99.90
24452;DHT22;13350;50.984;5.822;2023-08-17T02:47:14;18.10;99.90
24452;DHT22;13350;50.984;5.822;2023-08-17T02:49:42;18.10;99.90
24452;DHT22;13350;50.984;5.822;2023-08-17T02:52:09;18.10;99.90
24452;DHT22;13350;50.984;5.822;2023-08-17T02:54:36;18.10;99.90
24452;DHT22;13350;50.984;5.822;2023-08-17T02:57:03;18.10;99.90
24452;DHT22;13350;50.984;5.822;2023-08-17T02:59:30;18.10;99.90
24452;DHT22;13350;50.984;5.822;2023-08-17T03:01:57;18.10;99.90
24452;DHT22;13350;50.984;5.822;2023-08-17T03:04:24;18.10;99.90
24452;DHT22;13350;50.984;5.822;2023-08-17T03:06:52;18.10;99.90
24452;DHT22;13350;50.984;5.822;2023-08-17T03:09:19;18.10;99.90
24452;DHT22;13350;50.984;5.822;2023-08-17T03:11:46;18.00;99.90
24452;DHT22;13350;50.984;5.822;2023-08-17T03:14:13;18.10;99.90
24452;DHT22;13350;50.984;5.822;2023-08-17T03:16:40;18.00;99.90
24452;DHT22;13350;50.984;5.822;2023-08-17T03:19:07;18.00;99.90
24452;DHT22;13350;50.984;5.822;2023-08-17T03:21:36;18.00;99.90
24452;DHT22;13350;50.984;5.822;2023-08-17T03:24:05;17.90;99.90
24452;DHT22;13350;50.984;5.822;2023-08-17T03:26:32;17.90;99.90
24452;DHT22;13350;50.984;5.822;2023-08-17T03:28:59;17.90;99.90
24452;DHT22;13350;50.984;5.822;2023-08-17T03:31:26;17.90;99.90
24452;DHT22;13350;50.984;5.822;2023-08-17T03:33:53;17.80;99.90
24452;DHT22;13350;50.984;5.822;2023-08-17T03:36:21;17.80;99.90
24452;DHT22;13350;50.984;5.822;2023-08-17T03:38:48;17.80;99.90
24452;DHT22;13350;50.984;5.822;2023-08-17T03:41:16;17.80;99.90
24452;DHT22;13350;50.984;5.822;2023-08-17T03:43:43;17.80;99.90
24452;DHT22;13350;50.984;5.822;2023-08-17T03:46:10;17.80;99.90
24452;DHT22;13350;50.984;5.822;2023-08-17T03:48:37;17.80;99.90
24452;DHT22;13350;50.984;5.822;2023-08-17T03:51:04;17.80;99.90
24452;DHT22;13350;50.984;5.822;2023-08-17T03:53:31;17.70;99.90
24452;DHT22;13350;50.984;5.822;2023-08-17T03:55:58;17.70;99.90
24452;DHT22;13350;50.984;5.822;2023-08-17T03:58:26;17.80;99.90
24452;DHT22;13350;50.984;5.822;2023-08-17T04:00:58;17.70;99.90
24452;DHT22;13350;50.984;5.822;2023-08-17T04:03:25;17.70;99.90
24452;DHT22;13350;50.984;5.822;2023-08-17T04:05:52;17.70;99.90
24452;DHT22;13350;50.984;5.822;2023-08-17T04:08:19;17.70;99.90
24452;DHT22;13350;50.984;5.822;2023-08-17T04:10:46;17.70;99.90
24452;DHT22;13350;50.984;5.822;2023-08-17T04:13:13;17.70;99.90
24452;DHT22;13350;50.984;5.822;2023-08-17T04:15:41;17.70;99.90
24452;DHT22;13350;50.984;5.822;2023-08-17T04:18:09;17.70;99.90
24452;DHT22;13350;50.984;5.822;2023-08-17T04:20:36;17.70;99.90
24452;DHT22;13350;50.984;5.822;2023-08-17T04:23:03;17.70;99.90
24452;DHT22;13350;50.984;5.822;2023-08-17T04:25:29;17.70;99.90
24452;DHT22;13350;50.984;5.822;2023-08-17T04:27:57;17.60;99.90
24452;DHT22;13350;50.984;5.822;2023-08-17T04:30:23;17.60;99.90
24452;DHT22;13350;50.984;5.822;2023-08-17T04:32:52;17.60;99.90
24452;DHT22;13350;50.984;5.822;2023-08-17T04:35:19;17.60;99.90
24452;DHT22;13350;50.984;5.822;2023-08-17T04:37:46;17.60;99.90
24452;DHT22;13350;50.984;5.822;2023-08-17T04:40:13;17.50;99.90
24452;DHT22;13350;50.984;5.822;2023-08-17T04:42:40;17.50;99.90
24452;DHT22;13350;50.984;5.822;2023-08-17T04:45:08;17.50;99.90
24452;DHT22;13350;50.984;5.822;2023-08-17T04:47:35;17.50;99.90
24452;DHT22;13350;50.984;5.822;2023-08-17T04:50:03;17.50;99.90
24452;DHT22;13350;50.984;5.822;2023-08-17T04:52:30;17.50;99.90
24452;DHT22;13350;50.984;5.822;2023-08-17T04:54:57;17.50;99.90
24452;DHT22;13350;50.984;5.822;2023-08-17T04:57:24;17.40;99.90
24452;DHT22;13350;50.984;5.822;2023-08-17T04:59:51;17.40;99.90
24452;DHT22;13350;50.984;5.822;2023-08-17T05:02:18;17.40;99.90
24452;DHT22;13350;50.984;5.822;2023-08-17T05:04:46;17.40;99.90
24452;DHT22;13350;50.984;5.822;2023-08-17T05:07:14;17.40;99.90
24452;DHT22;13350;50.984;5.822;2023-08-17T05:09:41;17.40;99.90
24452;DHT22;13350;50.984;5.822;2023-08-17T05:12:08;17.40;99.90
24452;DHT22;13350;50.984;5.822;2023-08-17T05:14:35;17.40;99.90
24452;DHT22;13350;50.984;5.822;2023-08-17T05:17:02;17.40;99.90
24452;DHT22;13350;50.984;5.822;2023-08-17T05:19:29;17.40;99.90
24452;DHT22;13350;50.984;5.822;2023-08-17T05:21:57;17.40;99.90
24452;DHT22;13350;50.984;5.822;2023-08-17T05:24:25;17.40;99.90
24452;DHT22;13350;50.984;5.822;2023-08-17T05:26:53;17.40;99.90
24452;DHT22;13350;50.984;5.822;2023-08-17T05:29:20;17.40;99.90
24452;DHT22;13350;50.984;5.822;2023-08-17T05:31:47;17.40;99.90
24452;DHT22;13350;50.984;5.822;2023-08-17T05:34:14;17.40;99.90
24452;DHT22;13350;50.984;5.822;2023-08-17T05:36:41;17.40;99.90
24452;DHT22;13350;50.984;5.822;2023-08-17T05:39:08;17.40;99.90
24452;DHT22;13350;50.984;5.822;2023-08-17T05:41:37;17.40;99.90
24452;DHT22;13350;50.984;5.822;2023-08-17T05:44:04;17.40;99.90
24452;DHT22;13350;50.984;5.822;2023-08-17T05:46:32;17.30;99.90
24452;DHT22;13350;50.984;5.822;2023-08-17T05:48:59;17.30;99.90
24452;DHT22;13350;50.984;5.822;2023-08-17T05:51:26;17.30;99.90
24452;DHT22;13350;50.984;5.822;2023-08-17T05:53:53;17.40;99.90
24452;DHT22;13350;50.984;5.822;2023-08-17T05:56:20;17.40;99.90
24452;DHT22;13350;50.984;5.822;2023-08-17T05:58:49;17.40;99.90
24452;DHT22;13350;50.984;5.822;2023-08-17T06:01:16;17.40;99.90
24452;DHT22;13350;50.984;5.822;2023-08-17T06:03:43;17.40;99.90
24452;DHT22;13350;50.984;5.822;2023-08-17T06:06:11;17.40;99.90
24452;DHT22;13350;50.984;5.822;2023-08-17T06:08:38;17.40;99.90
24452;DHT22;13350;50.984;5.822;2023-08-17T06:11:05;17.40;99.90
24452;DHT22;13350;50.984;5.822;2023-08-17T06:13:31;17.40;99.90
24452;DHT22;13350;50.984;5.822;2023-08-17T06:16:02;17.40;99.90
24452;DHT22;13350;50.984;5.822;2023-08-17T06:18:29;17.40;99.90
24452;DHT22;13350;50.984;5.822;2023-08-17T06:20:56;17.50;99.90
24452;DHT22;13350;50.984;5.822;2023-08-17T06:23:23;17.50;99.90
24452;DHT22;13350;50.984;5.822;2023-08-17T06:25:50;17.50;99.90
24452;DHT22;13350;50.984;5.822;2023-08-17T06:28:17;17.60;99.90
24452;DHT22;13350;50.984;5.822;2023-08-17T06:30:44;17.60;99.90
24452;DHT22;13350;50.984;5.822;2023-08-17T06:33:12;17.60;99.90
24452;DHT22;13350;50.984;5.822;2023-08-17T06:35:39;17.60;99.90
24452;DHT22;13350;50.984;5.822;2023-08-17T06:38:06;17.70;99.90
24452;DHT22;13350;50.984;5.822;2023-08-17T06:40:33;17.70;99.90
24452;DHT22;13350;50.984;5.822;2023-08-17T06:43:00;17.70;99.90
24452;DHT22;13350;50.984;5.822;2023-08-17T06:45:27;17.70;99.90
24452;DHT22;13350;50.984;5.822;2023-08-17T06:47:54;17.70;99.90
24452;DHT22;13350;50.984;5.822;2023-08-17T06:50:23;17.70;99.90
24452;DHT22;13350;50.984;5.822;2023-08-17T06:52:50;17.80;99.90
24452;DHT22;13350;50.984;5.822;2023-08-17T06:55:17;17.70;99.90
24452;DHT22;13350;50.984;5.822;2023-08-17T06:57:44;17.80;99.90
24452;DHT22;13350;50.984;5.822;2023-08-17T07:00:11;17.90;99.90
24452;DHT22;13350;50.984;5.822;2023-08-17T07:02:38;18.00;99.90
24452;DHT22;13350;50.984;5.822;2023-08-17T07:05:05;18.00;99.90
24452;DHT22;13350;50.984;5.822;2023-08-17T07:07:35;18.00;99.90
24452;DHT22;13350;50.984;5.822;2023-08-17T07:10:02;18.00;99.90
24452;DHT22;13350;50.984;5.822;2023-08-17T07:12:29;18.00;99.90
